sensor_id;sensor_type;location;lat;lon;timestamp;temperature;humidity
7998;DHT22;4044;49.814;7.828;2023-11-19T00:02:12;10.00;99.90
7998;DHT22;4044;49.814;7.828;2023-11-19T00:04:38;9.90;99.90
7998;DHT22;4044;49.814;7.828;2023-11-19T00:07:05;9.90;99.90
7998;DHT22;4044;49.814;7.828;2023-11-19T00:09:32;9.80;99.90
7998;DHT22;4044;49.814;7.828;2023-11-19T00:11:58;9.90;99.90
7998;DHT22;4044;49.814;7.828;2023-11-19T00:14:26;9.90;99.90
7998;DHT22;4044;49.814;7.828;2023-11-19T00:16:51;9.80;99.90
7998;DHT22;4044;49.814;7.828;2023-11-19T00:19:17;9.80;99.90
7998;DHT22;4044;49.814;7.828;2023-11-19T00:21:42;9.90;99.90
7998;DHT22;4044;49.814;7.828;2023-11-19T00:24:08;9.90;99.90
7998;DHT22;4044;49.814;7.828;2023-11-19T00:26:34;9.90;99.90
7998;DHT22;4044;49.814;7.828;2023-11-19T00:29:00;9.80;99.90
7998;DHT22;4044;49.814;7.828;2023-11-19T00:31:25;9.80;99.90
7998;DHT22;4044;49.814;7.828;2023-11-19T00:33:54;9.80;99.90
7998;DHT22;4044;49.814;7.828;2023-11-19T00:36:19;9.80;99.90
7998;DHT22;4044;49.814;7.828;2023-11-19T00:38:45;9.80;99.90
7998;DHT22;4044;49.814;7.828;2023-11-19T00:41:11;9.80;99.90
7998;DHT22;4044;49.814;7.828;2023-11-19T00:43:37;9.70;99.90
7998;DHT22;4044;49.814;7.828;2023-11-19T00:46:02;9.70;99.90
7998;DHT22;4044;49.814;7.828;2023-11-19T00:48:28;9.70;99.90
7998;DHT22;4044;49.814;7.828;2023-11-19T00:50:54;9.70;99.90
7998;DHT22;4044;49.814;7.828;2023-11-19T00:53:19;9.70;99.90
7998;DHT22;4044;49.814;7.828;2023-11-19T00:55:45;9.70;99.90
7998;DHT22;4044;49.814;7.828;2023-11-19T00:58:10;9.60;99.90
7998;DHT22;4044;49.814;7.828;2023-11-19T01:00:36;9.60;99.90
7998;DHT22;4044;49.814;7.828;2023-11-19T01:03:01;9.60;99.90
7998;DHT22;4044;49.814;7.828;2023-11-19T01:05:27;9.60;99.90
7998;DHT22;4044;49.814;7.828;2023-11-19T01:07:53;9.60;99.90
7998;DHT22;4044;49.814;7.828;2023-11-19T01:10:19;9.60;99.90
7998;DHT22;4044;49.814;7.828;2023-11-19T01:12:45;9.60;99.90
7998;DHT22;4044;49.814;7.828;2023-11-19T01:15:11;9.70;99.90
7998;DHT22;4044;49.814;7.828;2023-11-19T01:17:37;9.80;99.90
7998;DHT22;4044;49.814;7.828;2023-11-19T01:20:03;9.80;99.90
7998;DHT22;4044;49.814;7.828;2023-11-19T01:22:32;9.90;99.90
7998;DHT22;4044;49.814;7.828;2023-11-19T01:24:58;10.00;99.90
7998;DHT22;4044;49.814;7.828;2023-11-19T01:27:24;10.10;99.90
7998;DHT22;4044;49.814;7.828;2023-11-19T01:29:50;10.10;99.90
7998;DHT22;4044;49.814;7.828;2023-11-19T01:32:15;10.20;99.90
7998;DHT22;4044;49.814;7.828;2023-11-19T01:34:41;10.30;99.90
7998;DHT22;4044;49.814;7.828;2023-11-19T01:37:07;10.30;99.90
7998;DHT22;4044;49.814;7.828;2023-11-19T01:39:34;10.30;99.90
7998;DHT22;4044;49.814;7.828;2023-11-19T01:42:00;10.40;99.90
7998;DHT22;4044;49.814;7.828;2023-11-19T01:44:25;10.40;99.90
7998;DHT22;4044;49.814;7.828;2023-11-19T01:46:51;10.50;99.90
7998;DHT22;4044;49.814;7.828;2023-11-19T01:49:18;10.50;99.90
7998;DHT22;4044;49.814;7.828;2023-11-19T01:51:45;10.50;99.90
7998;DHT22;4044;49.814;7.828;2023-11-19T01:54:11;10.60;99.90
7998;DHT22;4044;49.814;7.828;2023-11-19T01:56:38;10.70;99.90
7998;DHT22;4044;49.814;7.828;2023-11-19T01:59:07;10.70;99.90
7998;DHT22;4044;49.814;7.828;2023-11-19T02:01:34;10.80;99.90
7998;DHT22;4044;49.814;7.828;2023-11-19T02:04:05;10.90;99.90
7998;DHT22;4044;49.814;7.828;2023-11-19T02:06:33;10.90;99.90
7998;DHT22;4044;49.814;7.828;2023-11-19T02:08:59;10.90;99.90
7998;DHT22;4044;49.814;7.828;2023-11-19T02:11:25;10.90;99.90
7998;DHT22;4044;49.814;7.828;2023-11-19T02:13:55;10.90;99.90
7998;DHT22;4044;49.814;7.828;2023-11-19T02:16:21;10.90;99.90
7998;DHT22;4044;49.814;7.828;2023-11-19T02:18:46;10.90;99.90
7998;DHT22;4044;49.814;7.828;2023-11-19T02:21:12;10.80;99.90
7998;DHT22;4044;49.814;7.828;2023-11-19T02:23:40;10.90;99.90
7998;DHT22;4044;49.814;7.828;2023-11-19T02:26:32;10.90;99.90
7998;DHT22;4044;49.814;7.828;2023-11-19T02:29:01;11.00;99.90
7998;DHT22;4044;49.814;7.828;2023-11-19T02:31:28;11.00;99.90
7998;DHT22;4044;49.814;7.828;2023-11-19T02:33:53;10.90;99.90
7998;DHT22;4044;49.814;7.828;2023-11-19T02:36:20;10.90;99.90
7998;DHT22;4044;49.814;7.828;2023-11-19T02:38:46;11.00;99.90
7998;DHT22;4044;49.814;7.828;2023-11-19T02:41:13;11.00;99.90
7998;DHT22;4044;49.814;7.828;2023-11-19T02:43:39;11.00;99.90
7998;DHT22;4044;49.814;7.828;2023-11-19T02:46:05;11.00;99.90
7998;DHT22;4044;49.814;7.828;2023-11-19T02:48:35;11.10;99.90
7998;DHT22;4044;49.814;7.828;2023-11-19T02:51:04;11.10;99.90
7998;DHT22;4044;49.814;7.828;2023-11-19T02:53:30;11.10;99.90
7998;DHT22;4044;49.814;7.828;2023-11-19T02:55:56;11.10;99.90
7998;DHT22;4044;49.814;7.828;2023-11-19T02:58:27;11.10;99.90
7998;DHT22;4044;49.814;7.828;2023-11-19T03:00:54;11.20;99.90
7998;DHT22;4044;49.814;7.828;2023-11-19T03:03:26;11.10;99.90
7998;DHT22;4044;49.814;7.828;2023-11-19T03:06:04;11.10;99.90
7998;DHT22;4044;49.814;7.828;2023-11-19T03:08:31;11.10;99.90
7998;DHT22;4044;49.814;7.828;2023-11-19T03:10:57;11.20;99.90
7998;DHT22;4044;49.814;7.828;2023-11-19T03:13:24;11.20;99.90
7998;DHT22;4044;49.814;7.828;2023-11-19T03:15:50;11.10;99.90
7998;DHT22;4044;49.814;7.828;2023-11-19T03:18:17;11.20;99.90
7998;DHT22;4044;49.814;7.828;2023-11-19T03:20:42;11.20;99.90
7998;DHT22;4044;49.814;7.828;2023-11-19T03:23:08;11.30;99.90
7998;DHT22;4044;49.814;7.828;2023-11-19T03:25:33;11.40;99.90
7998;DHT22;4044;49.814;7.828;2023-11-19T03:28:00;11.40;99.90
7998;DHT22;4044;49.814;7.828;2023-11-19T03:30:27;11.40;99.90
7998;DHT22;4044;49.814;7.828;2023-11-19T03:32:54;11.40;99.90
7998;DHT22;4044;49.814;7.828;2023-11-19T03:35:19;11.40;99.90
7998;DHT22;4044;49.814;7.828;2023-11-19T03:37:45;11.40;99.90
7998;DHT22;4044;49.814;7.828;2023-11-19T03:40:12;11.20;99.90
7998;DHT22;4044;49.814;7.828;2023-11-19T03:42:37;10.90;99.90
7998;DHT22;4044;49.814;7.828;2023-11-19T03:45:08;10.90;99.90
7998;DHT22;4044;49.814;7.828;2023-11-19T03:47:34;10.90;99.90
7998;DHT22;4044;49.814;7.828;2023-11-19T03:50:00;10.90;99.90
7998;DHT22;4044;49.814;7.828;2023-11-19T03:52:26;10.80;99.90
7998;DHT22;4044;49.814;7.828;2023-11-19T03:54:54;10.80;99.90
7998;DHT22;4044;49.814;7.828;2023-11-19T03:57:21;10.90;99.90
7998;DHT22;4044;49.814;7.828;2023-11-19T03:59:46;10.90;99.90
7998;DHT22;4044;49.814;7.828;2023-11-19T04:02:12;10.90;99.90
7998;DHT22;4044;49.814;7.828;2023-11-19T04:04:38;10.90;99.90
7998;DHT22;4044;49.814;7.828;2023-11-19T04:07:04;11.00;99.90
7998;DHT22;4044;49.814;7.828;2023-11-19T04:09:30;11.10;99.90
7998;DHT22;4044;49.814;7.828;2023-11-19T04:11:56;11.10;99.90
7998;DHT22;4044;49.814;7.828;2023-11-19T04:14:22;11.10;99.90
7998;DHT22;4044;49.814;7.828;2023-11-19T04:16:47;11.10;99.90
7998;DHT22;4044;49.814;7.828;2023-11-19T04:19:13;11.00;99.90
7998;DHT22;4044;49.814;7.828;2023-11-19T04:21:42;11.00;99.90
7998;DHT22;4044;49.814;7.828;2023-11-19T04:24:08;11.00;99.90
7998;DHT22;4044;49.814;7.828;2023-11-19T04:26:34;11.10;99.90
7998;DHT22;4044;49.814;7.828;2023-11-19T04:29:00;11.20;99.90
7998;DHT22;4044;49.814;7.828;2023-11-19T04:31:31;11.20;99.90
7998;DHT22;4044;49.814;7.828;2023-11-19T04:33:57;11.30;99.90
7998;DHT22;4044;49.814;7.828;2023-11-19T04:36:22;11.20;99.90
7998;DHT22;4044;49.814;7.828;2023-11-19T04:38:50;11.20;99.90
7998;DHT22;4044;49.814;7.828;2023-11-19T04:41:15;11.20;99.90
7998;DHT22;4044;49.814;7.828;2023-11-19T04:43:41;11.30;99.90
7998;DHT22;4044;49.814;7.828;2023-11-19T04:46:07;11.30;99.90
7998;DHT22;4044;49.814;7.828;2023-11-19T04:48:32;11.30;99.90
7998;DHT22;4044;49.814;7.828;2023-11-19T04:50:58;11.40;99.90
7998;DHT22;4044;49.814;7.828;2023-11-19T04:53:23;11.40;99.90
7998;DHT22;4044;49.814;7.828;2023-11-19T04:55:48;11.40;99.90
7998;DHT22;4044;49.814;7.828;2023-11-19T04:58:14;11.40;99.90
7998;DHT22;4044;49.814;7.828;2023-11-19T05:00:39;11.40;99.90
7998;DHT22;4044;49.814;7.828;2023-11-19T05:03:05;11.40;99.90
7998;DHT22;4044;49.814;7.828;2023-11-19T05:05:30;11.40;99.90
7998;DHT22;4044;49.814;7.828;2023-11-19T05:07:56;11.40;99.90
7998;DHT22;4044;49.814;7.828;2023-11-19T05:10:22;11.40;99.90
7998;DHT22;4044;49.814;7.828;2023-11-19T05:12:47;11.50;99.90
7998;DHT22;4044;49.814;7.828;2023-11-19T05:15:13;11.60;99.90
7998;DHT22;4044;49.814;7.828;2023-11-19T05:17:39;11.60;99.90
7998;DHT22;4044;49.814;7.828;2023-11-19T05:20:05;11.70;99.90
7998;DHT22;4044;49.814;7.828;2023-11-19T05:22:41;11.80;99.90
7998;DHT22;4044;49.814;7.828;2023-11-19T05:25:07;11.80;99.90
7998;DHT22;4044;49.814;7.828;2023-11-19T05:27:34;11.80;99.90
7998;DHT22;4044;49.814;7.828;2023-11-19T05:30:01;11.80;99.90
7998;DHT22;4044;49.814;7.828;2023-11-19T05:32:27;11.90;99.90
7998;DHT22;4044;49.814;7.828;2023-11-19T05:34:52;12.00;99.90
7998;DHT22;4044;49.814;7.828;2023-11-19T05:37:18;12.10;99.90
7998;DHT22;4044;49.814;7.828;2023-11-19T05:39:45;12.20;99.90
7998;DHT22;4044;49.814;7.828;2023-11-19T05:42:10;12.20;99.90
7998;DHT22;4044;49.814;7.828;2023-11-19T05:44:36;12.20;99.90
7998;DHT22;4044;49.814;7.828;2023-11-19T05:47:02;12.20;99.90
7998;DHT22;4044;49.814;7.828;2023-11-19T05:49:27;12.30;99.90
7998;DHT22;4044;49.814;7.828;2023-11-19T05:51:53;12.20;99.90
7998;DHT22;4044;49.814;7.828;2023-11-19T05:54:21;12.20;99.90
7998;DHT22;4044;49.814;7.828;2023-11-19T05:56:49;12.20;99.90
7998;DHT22;4044;49.814;7.828;2023-11-19T05:59:15;12.10;99.90
7998;DHT22;4044;49.814;7.828;2023-11-19T06:01:43;12.10;99.90
7998;DHT22;4044;49.814;7.828;2023-11-19T06:04:09;12.00;99.90
7998;DHT22;4044;49.814;7.828;2023-11-19T06:06:35;12.00;99.90
7998;DHT22;4044;49.814;7.828;2023-11-19T06:09:01;11.90;99.90
7998;DHT22;4044;49.814;7.828;2023-11-19T06:11:27;11.90;99.90
7998;DHT22;4044;49.814;7.828;2023-11-19T06:13:53;11.90;99.90
7998;DHT22;4044;49.814;7.828;2023-11-19T06:16:19;11.80;99.90
7998;DHT22;4044;49.814;7.828;2023-11-19T06:18:44;11.70;99.90
7998;DHT22;4044;49.814;7.828;2023-11-19T06:21:10;11.70;99.90
7998;DHT22;4044;49.814;7.828;2023-11-19T06:23:36;11.60;99.90
7998;DHT22;4044;49.814;7.828;2023-11-19T06:26:02;11.50;99.90
7998;DHT22;4044;49.814;7.828;2023-11-19T06:28:27;11.60;99.90
7998;DHT22;4044;49.814;7.828;2023-11-19T06:30:53;11.70;99.90
7998;DHT22;4044;49.814;7.828;2023-11-19T06:33:18;11.60;99.90
7998;DHT22;4044;49.814;7.828;2023-11-19T06:35:44;11.70;99.90
7998;DHT22;4044;49.814;7.828;2023-11-19T06:38:10;11.60;99.90
7998;DHT22;4044;49.814;7.828;2023-11-19T06:40:36;11.70;99.90
7998;DHT22;4044;49.814;7.828;2023-11-19T06:43:02;11.70;99.90
7998;DHT22;4044;49.814;7.828;2023-11-19T06:45:33;11.90;99.90
7998;DHT22;4044;49.814;7.828;2023-11-19T06:48:01;12.00;99.90
7998;DHT22;4044;49.814;7.828;2023-11-19T06:50:28;12.10;99.90
7998;DHT22;4044;49.814;7.828;2023-11-19T06:52:54;12.10;99.90
7998;DHT22;4044;49.814;7.828;2023-11-19T06:55:19;12.20;99.90
7998;DHT22;4044;49.814;7.828;2023-11-19T06:57:45;12.20;99.90
7998;DHT22;4044;49.814;7.828;2023-11-19T07:00:11;12.20;99.90
7998;DHT22;4044;49.814;7.828;2023-11-19T07:02:36;12.30;99.90
7998;DHT22;4044;49.814;7.828;2023-11-19T07:05:02;12.20;99.90
7998;DHT22;4044;49.814;7.828;2023-11-19T07:07:31;12.10;99.90
7998;DHT22;4044;49.814;7.828;2023-11-19T07:09:57;12.00;99.90
7998;DHT22;4044;49.814;7.828;2023-11-19T07:12:22;12.00;99.90
7998;DHT22;4044;49.814;7.828;2023-11-19T07:14:48;11.90;99.90
7998;DHT22;4044;49.814;7.828;2023-11-19T07:17:13;11.90;99.90
7998;DHT22;4044;49.814;7.828;2023-11-19T07:19:39;11.80;99.90
7998;DHT22;4044;49.814;7.828;2023-11-19T07:22:04;11.80;99.90
7998;DHT22;4044;49.814;7.828;2023-11-19T07:24:31;11.70;99.90
7998;DHT22;4044;49.814;7.828;2023-11-19T07:26:57;11.70;99.90
7998;DHT22;4044;49.814;7.828;2023-11-19T07:29:22;11.70;99.90
7998;DHT22;4044;49.814;7.828;2023-11-19T07:31:49;11.70;99.90
7998;DHT22;4044;49.814;7.828;2023-11-19T07:34:14;11.70;99.90
7998;DHT22;4044;49.814;7.828;2023-11-19T07:36:40;11.70;99.90
7998;DHT22;4044;49.814;7.828;2023-11-19T07:39:06;11.70;99.90
7998;DHT22;4044;49.814;7.828;2023-11-19T07:41:32;11.70;99.90
7998;DHT22;4044;49.814;7.828;2023-11-19T07:43:57;11.80;99.90
7998;DHT22;4044;49.814;7.828;2023-11-19T07:46:23;11.80;99.90
7998;DHT22;4044;49.814;7.828;2023-11-19T07:48:48;11.70;99.90
7998;DHT22;4044;49.814;7.828;2023-11-19T07:51:14;11.70;99.90
7998;DHT22;4044;49.814;7.828;2023-11-19T07:53:40;11.80;99.90
7998;DHT22;4044;49.814;7.828;2023-11-19T07:56:07;11.90;99.90
7998;DHT22;4044;49.814;7.828;2023-11-19T07:58:33;12.00;99.90
7998;DHT22;4044;49.814;7.828;2023-11-19T08:00:58;12.10;99.90
7998;DHT22;4044;49.814;7.828;2023-11-19T08:03:24;12.20;99.90
7998;DHT22;4044;49.814;7.828;2023-11-19T08:05:49;12.40;99.90
7998;DHT22;4044;49.814;7.828;2023-11-19T08:08:16;12.50;99.90
7998;DHT22;4044;49.814;7.828;2023-11-19T08:10:42;12.50;99.90
7998;DHT22;4044;49.814;7.828;2023-11-19T08:13:08;12.40;99.90
7998;DHT22;4044;49.814;7.828;2023-11-19T08:15:34;12.30;99.90
7998;DHT22;4044;49.814;7.828;2023-11-19T08:17:59;12.30;99.90
7998;DHT22;4044;49.814;7.828;2023-11-19T08:20:25;12.20;99.90
7998;DHT22;4044;49.814;7.828;2023-11-19T08:22:50;12.30;99.90
7998;DHT22;4044;49.814;7.828;2023-11-19T08:25:16;12.30;99.90
7998;DHT22;4044;49.814;7.828;2023-11-19T08:27:42;12.30;99.90
7998;DHT22;4044;49.814;7.828;2023-11-19T08:30:08;12.30;99.90
7998;DHT22;4044;49.814;7.828;2023-11-19T08:32:34;12.40;99.90
7998;DHT22;4044;49.814;7.828;2023-11-19T08:35:00;12.40;99.90
7998;DHT22;4044;49.814;7.828;2023-11-19T08:37:25;12.40;99.90
7998;DHT22;4044;49.814;7.828;2023-11-19T08:39:51;12.40;99.90
7998;DHT22;4044;49.814;7.828;2023-11-19T08:42:17;12.60;99.90
7998;DHT22;4044;49.814;7.828;2023-11-19T08:44:43;12.70;99.90
7998;DHT22;4044;49.814;7.828;2023-11-19T08:47:12;12.90;99.90
7998;DHT22;4044;49.814;7.828;2023-11-19T08:49:38;13.00;99.90
7998;DHT22;4044;49.814;7.828;2023-11-19T08:52:05;13.00;99.90
7998;DHT22;4044;49.814;7.828;2023-11-19T08:54:30;13.10;99.90
7998;DHT22;4044;49.814;7.828;2023-11-19T08:56:56;13.20;99.90
7998;DHT22;4044;49.814;7.828;2023-11-19T08:59:21;13.40;99.90
7998;DHT22;4044;49.814;7.828;2023-11-19T09:01:47;13.60;99.90
7998;DHT22;4044;49.814;7.828;2023-11-19T09:04:12;13.60;99.90
7998;DHT22;4044;49.814;7.828;2023-11-19T09:06:39;13.80;99.90
7998;DHT22;4044;49.814;7.828;2023-11-19T09:09:05;13.80;99.90
7998;DHT22;4044;49.814;7.828;2023-11-19T09:11:31;13.90;99.90
7998;DHT22;4044;49.814;7.828;2023-11-19T09:13:57;13.90;99.90
7998;DHT22;4044;49.814;7.828;2023-11-19T09:16:22;14.10;99.90
7998;DHT22;4044;49.814;7.828;2023-11-19T09:18:48;14.20;99.90
7998;DHT22;4044;49.814;7.828;2023-11-19T09:21:13;14.20;99.90
7998;DHT22;4044;49.814;7.828;2023-11-19T09:23:39;14.30;99.90
7998;DHT22;4044;49.814;7.828;2023-11-19T09:26:06;14.40;99.90
7998;DHT22;4044;49.814;7.828;2023-11-19T09:28:33;14.60;99.90
7998;DHT22;4044;49.814;7.828;2023-11-19T09:30:58;14.70;99.90
7998;DHT22;4044;49.814;7.828;2023-11-19T09:33:24;14.70;99.90
7998;DHT22;4044;49.814;7.828;2023-11-19T09:35:50;14.80;99.90
7998;DHT22;4044;49.814;7.828;2023-11-19T09:38:16;14.80;99.90
7998;DHT22;4044;49.814;7.828;2023-11-19T09:40:42;14.90;99.90
7998;DHT22;4044;49.814;7.828;2023-11-19T09:43:08;15.00;99.90
7998;DHT22;4044;49.814;7.828;2023-11-19T09:45:48;15.10;99.90
7998;DHT22;4044;49.814;7.828;2023-11-19T09:48:17;15.30;99.90
7998;DHT22;4044;49.814;7.828;2023-11-19T09:50:47;15.20;99.90
7998;DHT22;4044;49.814;7.828;2023-11-19T09:53:13;15.00;99.90
7998;DHT22;4044;49.814;7.828;2023-11-19T09:55:39;15.00;99.90
7998;DHT22;4044;49.814;7.828;2023-11-19T09:58:07;15.00;99.90
7998;DHT22;4044;49.814;7.828;2023-11-19T10:00:33;15.00;99.90
7998;DHT22;4044;49.814;7.828;2023-11-19T10:03:00;15.00;99.90
7998;DHT22;4044;49.814;7.828;2023-11-19T10:05:26;14.90;99.90
7998;DHT22;4044;49.814;7.828;2023-11-19T10:07:52;14.90;99.90
7998;DHT22;4044;49.814;7.828;2023-11-19T10:10:18;15.10;99.90
7998;DHT22;4044;49.814;7.828;2023-11-19T10:12:50;15.00;99.90
7998;DHT22;4044;49.814;7.828;2023-11-19T10:15:23;15.00;99.90
7998;DHT22;4044;49.814;7.828;2023-11-19T10:17:50;15.10;99.90
7998;DHT22;4044;49.814;7.828;2023-11-19T10:20:16;15.00;99.90
7998;DHT22;4044;49.814;7.828;2023-11-19T10:22:42;14.90;99.90
7998;DHT22;4044;49.814;7.828;2023-11-19T10:25:25;14.80;99.90
7998;DHT22;4044;49.814;7.828;2023-11-19T10:27:52;15.00;99.90
7998;DHT22;4044;49.814;7.828;2023-11-19T10:30:21;15.00;99.90
7998;DHT22;4044;49.814;7.828;2023-11-19T10:33:03;15.00;99.90
7998;DHT22;4044;49.814;7.828;2023-11-19T10:35:29;15.20;99.90
7998;DHT22;4044;49.814;7.828;2023-11-19T10:37:54;15.30;99.90
7998;DHT22;4044;49.814;7.828;2023-11-19T10:40:20;15.50;99.90
7998;DHT22;4044;49.814;7.828;2023-11-19T10:42:46;15.60;99.90
7998;DHT22;4044;49.814;7.828;2023-11-19T10:45:22;15.70;99.90
7998;DHT22;4044;49.814;7.828;2023-11-19T10:47:51;15.80;99.90
7998;DHT22;4044;49.814;7.828;2023-11-19T10:50:16;15.70;99.90
7998;DHT22;4044;49.814;7.828;2023-11-19T10:52:43;15.50;99.90
7998;DHT22;4044;49.814;7.828;2023-11-19T10:55:11;15.60;99.90
7998;DHT22;4044;49.814;7.828;2023-11-19T10:57:43;15.50;99.90
7998;DHT22;4044;49.814;7.828;2023-11-19T11:00:13;15.50;99.90
7998;DHT22;4044;49.814;7.828;2023-11-19T11:02:45;15.60;99.90
7998;DHT22;4044;49.814;7.828;2023-11-19T11:05:16;15.70;99.90
7998;DHT22;4044;49.814;7.828;2023-11-19T11:07:44;15.70;99.90
7998;DHT22;4044;49.814;7.828;2023-11-19T11:10:11;16.00;99.90
7998;DHT22;4044;49.814;7.828;2023-11-19T11:12:38;16.10;99.90
7998;DHT22;4044;49.814;7.828;2023-11-19T11:15:07;16.00;99.90
7998;DHT22;4044;49.814;7.828;2023-11-19T11:17:33;15.70;99.90
7998;DHT22;4044;49.814;7.828;2023-11-19T11:19:59;15.40;99.90
7998;DHT22;4044;49.814;7.828;2023-11-19T11:22:27;15.30;99.90
7998;DHT22;4044;49.814;7.828;2023-11-19T11:27:52;15.00;99.90
7998;DHT22;4044;49.814;7.828;2023-11-19T11:33:18;14.90;99.90
7998;DHT22;4044;49.814;7.828;2023-11-19T11:35:53;14.70;99.90
7998;DHT22;4044;49.814;7.828;2023-11-19T11:38:22;14.60;99.90
7998;DHT22;4044;49.814;7.828;2023-11-19T11:41:21;14.70;99.90
7998;DHT22;4044;49.814;7.828;2023-11-19T11:43:48;14.80;98.30
7998;DHT22;4044;49.814;7.828;2023-11-19T11:49:04;15.30;97.70
7998;DHT22;4044;49.814;7.828;2023-11-19T11:54:11;15.10;96.00
7998;DHT22;4044;49.814;7.828;2023-11-19T11:56:37;14.90;96.50
7998;DHT22;4044;49.814;7.828;2023-11-19T11:59:07;14.80;96.10
7998;DHT22;4044;49.814;7.828;2023-11-19T12:01:32;14.80;97.00
7998;DHT22;4044;49.814;7.828;2023-11-19T12:03:58;14.80;97.10
7998;DHT22;4044;49.814;7.828;2023-11-19T12:06:24;14.80;97.20
7998;DHT22;4044;49.814;7.828;2023-11-19T12:08:52;15.10;96.40
7998;DHT22;4044;49.814;7.828;2023-11-19T12:11:17;15.40;96.20
7998;DHT22;4044;49.814;7.828;2023-11-19T12:14:03;15.90;97.30
7998;DHT22;4044;49.814;7.828;2023-11-19T12:16:29;16.20;95.00
7998;DHT22;4044;49.814;7.828;2023-11-19T12:18:56;16.50;95.40
7998;DHT22;4044;49.814;7.828;2023-11-19T12:21:29;16.40;94.10
7998;DHT22;4044;49.814;7.828;2023-11-19T12:23:58;16.80;94.60
7998;DHT22;4044;49.814;7.828;2023-11-19T12:26:37;17.10;95.20
7998;DHT22;4044;49.814;7.828;2023-11-19T12:29:03;17.30;94.30
7998;DHT22;4044;49.814;7.828;2023-11-19T12:31:29;17.40;95.10
7998;DHT22;4044;49.814;7.828;2023-11-19T12:33:56;17.60;93.40
7998;DHT22;4044;49.814;7.828;2023-11-19T12:36:21;17.90;92.40
7998;DHT22;4044;49.814;7.828;2023-11-19T12:38:47;18.00;92.60
7998;DHT22;4044;49.814;7.828;2023-11-19T12:41:12;18.10;92.30
7998;DHT22;4044;49.814;7.828;2023-11-19T12:43:42;17.90;92.20
7998;DHT22;4044;49.814;7.828;2023-11-19T12:46:18;17.70;92.30
7998;DHT22;4044;49.814;7.828;2023-11-19T12:48:45;17.90;92.10
7998;DHT22;4044;49.814;7.828;2023-11-19T12:51:11;17.80;92.40
7998;DHT22;4044;49.814;7.828;2023-11-19T12:53:57;17.60;91.70
7998;DHT22;4044;49.814;7.828;2023-11-19T12:56:24;18.00;92.50
7998;DHT22;4044;49.814;7.828;2023-11-19T12:58:50;18.10;92.60
7998;DHT22;4044;49.814;7.828;2023-11-19T13:01:17;17.60;92.10
7998;DHT22;4044;49.814;7.828;2023-11-19T13:03:44;17.50;93.30
7998;DHT22;4044;49.814;7.828;2023-11-19T13:06:12;17.10;93.00
7998;DHT22;4044;49.814;7.828;2023-11-19T13:08:39;16.90;93.90
7998;DHT22;4044;49.814;7.828;2023-11-19T13:11:05;16.80;94.50
7998;DHT22;4044;49.814;7.828;2023-11-19T13:13:32;16.50;93.80
7998;DHT22;4044;49.814;7.828;2023-11-19T13:16:04;16.20;94.40
7998;DHT22;4044;49.814;7.828;2023-11-19T13:18:31;16.20;94.70
7998;DHT22;4044;49.814;7.828;2023-11-19T13:20:56;16.00;94.50
7998;DHT22;4044;49.814;7.828;2023-11-19T13:23:22;15.80;94.30
7998;DHT22;4044;49.814;7.828;2023-11-19T13:25:48;15.50;94.30
7998;DHT22;4044;49.814;7.828;2023-11-19T13:28:14;15.30;94.80
7998;DHT22;4044;49.814;7.828;2023-11-19T13:30:39;15.20;94.80
7998;DHT22;4044;49.814;7.828;2023-11-19T13:33:05;15.20;94.70
7998;DHT22;4044;49.814;7.828;2023-11-19T13:35:30;15.40;94.20
7998;DHT22;4044;49.814;7.828;2023-11-19T13:37:56;15.90;92.40
7998;DHT22;4044;49.814;7.828;2023-11-19T13:40:21;16.50;91.50
7998;DHT22;4044;49.814;7.828;2023-11-19T13:42:49;17.10;91.00
7998;DHT22;4044;49.814;7.828;2023-11-19T13:45:15;17.70;92.50
7998;DHT22;4044;49.814;7.828;2023-11-19T13:47:42;18.00;88.90
7998;DHT22;4044;49.814;7.828;2023-11-19T13:50:13;18.50;91.50
7998;DHT22;4044;49.814;7.828;2023-11-19T13:52:41;18.30;88.10
7998;DHT22;4044;49.814;7.828;2023-11-19T13:55:08;18.20;89.40
7998;DHT22;4044;49.814;7.828;2023-11-19T13:57:38;18.20;88.70
7998;DHT22;4044;49.814;7.828;2023-11-19T14:00:05;17.70;88.20
7998;DHT22;4044;49.814;7.828;2023-11-19T14:02:34;17.50;90.00
7998;DHT22;4044;49.814;7.828;2023-11-19T14:05:00;17.40;88.60
7998;DHT22;4044;49.814;7.828;2023-11-19T14:07:26;17.30;89.60
7998;DHT22;4044;49.814;7.828;2023-11-19T14:09:51;17.30;90.30
7998;DHT22;4044;49.814;7.828;2023-11-19T14:12:17;17.30;90.30
7998;DHT22;4044;49.814;7.828;2023-11-19T14:14:43;17.10;90.20
7998;DHT22;4044;49.814;7.828;2023-11-19T14:17:09;17.00;90.30
7998;DHT22;4044;49.814;7.828;2023-11-19T14:19:36;16.70;90.30
7998;DHT22;4044;49.814;7.828;2023-11-19T14:22:02;16.80;91.60
7998;DHT22;4044;49.814;7.828;2023-11-19T14:24:28;16.70;90.80
7998;DHT22;4044;49.814;7.828;2023-11-19T14:26:53;16.20;90.60
7998;DHT22;4044;49.814;7.828;2023-11-19T14:29:18;16.20;91.70
7998;DHT22;4044;49.814;7.828;2023-11-19T14:31:44;16.20;91.20
7998;DHT22;4044;49.814;7.828;2023-11-19T14:34:09;16.20;91.40
7998;DHT22;4044;49.814;7.828;2023-11-19T14:36:35;16.20;90.90
7998;DHT22;4044;49.814;7.828;2023-11-19T14:39:01;16.10;90.80
7998;DHT22;4044;49.814;7.828;2023-11-19T14:41:26;16.10;91.10
7998;DHT22;4044;49.814;7.828;2023-11-19T14:43:52;16.00;90.00
7998;DHT22;4044;49.814;7.828;2023-11-19T14:46:18;15.90;90.60
7998;DHT22;4044;49.814;7.828;2023-11-19T14:48:43;15.90;90.90
7998;DHT22;4044;49.814;7.828;2023-11-19T14:51:09;16.00;90.40
7998;DHT22;4044;49.814;7.828;2023-11-19T14:53:34;15.80;89.60
7998;DHT22;4044;49.814;7.828;2023-11-19T14:56:00;15.70;90.60
7998;DHT22;4044;49.814;7.828;2023-11-19T14:58:26;15.70;90.60
7998;DHT22;4044;49.814;7.828;2023-11-19T15:00:52;15.60;89.30
7998;DHT22;4044;49.814;7.828;2023-11-19T15:03:18;15.40;89.30
7998;DHT22;4044;49.814;7.828;2023-11-19T15:05:47;15.20;89.90
7998;DHT22;4044;49.814;7.828;2023-11-19T15:08:13;15.00;90.40
7998;DHT22;4044;49.814;7.828;2023-11-19T15:10:42;14.80;90.10
7998;DHT22;4044;49.814;7.828;2023-11-19T15:13:08;14.70;91.20
7998;DHT22;4044;49.814;7.828;2023-11-19T15:15:34;14.50;90.70
7998;DHT22;4044;49.814;7.828;2023-11-19T15:18:00;14.40;91.20
7998;DHT22;4044;49.814;7.828;2023-11-19T15:20:26;14.30;91.50
7998;DHT22;4044;49.814;7.828;2023-11-19T15:22:57;14.20;91.00
7998;DHT22;4044;49.814;7.828;2023-11-19T15:25:23;14.00;91.50
7998;DHT22;4044;49.814;7.828;2023-11-19T15:27:49;13.90;91.60
7998;DHT22;4044;49.814;7.828;2023-11-19T15:30:15;13.80;91.90
7998;DHT22;4044;49.814;7.828;2023-11-19T15:32:43;13.80;92.00
7998;DHT22;4044;49.814;7.828;2023-11-19T15:35:10;13.70;91.90
7998;DHT22;4044;49.814;7.828;2023-11-19T15:37:36;13.60;92.80
7998;DHT22;4044;49.814;7.828;2023-11-19T15:40:03;13.40;92.40
7998;DHT22;4044;49.814;7.828;2023-11-19T15:42:31;13.30;93.50
7998;DHT22;4044;49.814;7.828;2023-11-19T15:44:56;13.20;93.30
7998;DHT22;4044;49.814;7.828;2023-11-19T15:47:22;13.20;93.50
7998;DHT22;4044;49.814;7.828;2023-11-19T15:49:47;13.20;93.10
7998;DHT22;4044;49.814;7.828;2023-11-19T15:52:14;13.10;93.40
7998;DHT22;4044;49.814;7.828;2023-11-19T15:54:40;13.20;93.20
7998;DHT22;4044;49.814;7.828;2023-11-19T15:57:06;13.10;93.20
7998;DHT22;4044;49.814;7.828;2023-11-19T15:59:32;13.10;92.90
7998;DHT22;4044;49.814;7.828;2023-11-19T16:01:57;13.10;93.00
7998;DHT22;4044;49.814;7.828;2023-11-19T16:04:23;13.10;92.90
7998;DHT22;4044;49.814;7.828;2023-11-19T16:06:49;13.10;92.80
7998;DHT22;4044;49.814;7.828;2023-11-19T16:09:15;13.00;93.30
7998;DHT22;4044;49.814;7.828;2023-11-19T16:11:44;12.90;93.20